FVBU

Joshua Mqabuko Nkomo International Airport

Bulawayo, Zimbabwe
FVBU 181000Z 1812/1918 12009KT CAVOK PROB30 TEMPO 1905/1907 BKN008 BECMG 1908/1910 SCT030 FM191200 CAVOK
Issued Valid From Valid To
Jul-18 @ 10:00 UTC
(12 hours ago)
Jul-18 @ 12:00 UTC
(10 hours ago)
Jul-19 @ 18:00 UTC
(in 20 hours)
Jul-18 @ 12:00 to Jul-19 @ 08:00
FVBU 181000Z 1812/1918 12009KT CAVOK
Wind Visibility Clouds Conditions
120° at 9 knots 10,000+ meters
  • No significant clouds
Temporary  (Probability 30%) Jul-19 @ 05:00 to Jul-19 @ 07:00
PROB30 TEMPO 1905/1907 BKN008
Clouds
  • Broken at 800' AGL
Becoming Jul-19 @ 08:00 to Jul-19 @ 12:00
BECMG 1908/1910 SCT030
Wind Visibility Clouds Conditions
120° at 9 knots 10,000+ meters
  • Scattered at 3,000' AGL
From Jul-19 @ 12:00 to Jul-19 @ 18:00
FM191200 CAVOK
Visibility Clouds Conditions
10,000+ meters
  • No significant clouds
FVBU 181000Z 1812/1918 12009KT CAVOK PROB30 TEMPO 1905/1907 BKN008 BECMG 1908/1910 SCT030 FM191200 CAVOK
Issued Jul-18 @ 10:00 UTC
(12 hours ago)
Valid From Jul-18 @ 12:00 UTC
(10 hours ago)
Valid To Jul-19 @ 18:00 UTC
(in 20 hours)
Jul-18 @ 12:00 - Jul-19 @ 08:00
Wind Visibility
120° at 9 knots 10,000+ meters
Clouds
  • No significant clouds
Conditions
Probability 30% Temporary Jul-19 @ 05:00 - Jul-19 @ 07:00
Clouds
  • Broken at 800' AGL
Becoming Jul-19 @ 08:00 - Jul-19 @ 12:00
Wind Visibility
120° at 9 knots 10,000+ meters
Clouds
  • Scattered at 3,000' AGL
Conditions
From Jul-19 @ 12:00 - Jul-19 @ 18:00
Clouds
  • No significant clouds
Conditions